Главная страница
METAR-TAF:

METAR-TAF

Аэропорты :

Брянск, Россия

широта: 53-15N, долгота: 034-19E, высота над уровнем моря: 217 м

Текущие метеонаблюдения

Эта сводка был подготовлена 33 минут назад, в 15:00 UTC
Ветер 2 Узел от западный-юго-западный
Температура 1°C
Влажность 64%
Давление 1018 hPa
Видимость 10 км и более
Нет облачности ниже 1500 м, и нет кучево-дождевой облачности

METAR: UUBP 221500Z 25001MPS CAVOK 01/M05 Q1018 R34/CLRD70 NOSIG RMK QFE746/0995

Время: 18:33 (15:33 UTC)

Прогноз

Эта сводка был подготовлена 4 часа и 38 минут назад, в 10:55 UTC
Прогноз действительный с 22-го 12 UTC до 22-го 21 UTC
Ветер 8 Узел от северный
Видимость 10 км и более
Отдельные облака на высоте 3000 фута

TAF: UUBP 221055Z 2212/2221 01004MPS 9999 SCT030

Метеонаблюдения и прогнозы для более 4000 аэропортов (сводки METAR и TAF).

Имеющиеся станции представлены на карте желтыми и красными точками.

Чтобы увидеть название станции, наведите на нее мышь.

Затем щелкните, чтобы увидеть метеонаблюдения и метеопрогнозы.

Управление картой: чтобы увеличить масштаб, щелкните зеленые кнопки с черным крестиком; чтобы уменьшить масштаб, щелкните зеленую кнопку с тире; для просмотра соседних карт щелкайте зеленые стрелки.


METAR-TAF: